Time;durP1;ratioP1;P1;durP2;ratioP2;P2;SDS_P1;SDS_P2;PMS_P1;PMS_P2;Temp;Humidity;BMP_temperature;BMP_pressure;BME280_temperature;BME280_humidity;BME280_pressure;Samples;Min_cycle;Max_cycle;Signal;HPM_P1;HPM_P2
2023/04/24 00:01:28;;;;;;;9.30;2.45;;;;;;;18.73;54.03;96009.84;5032682;28;20028;-31
2023/04/24 00:03:54;;;;;;;6.00;2.60;;;;;;;18.59;54.74;96005.25;5040461;28;20465;-29
2023/04/24 00:06:20;;;;;;;5.20;2.45;;;;;;;18.86;53.76;96001.19;5033648;28;20108;-30
2023/04/24 00:08:45;;;;;;;8.10;2.47;;;;;;;18.79;53.90;95996.88;5033685;28;20021;-31
2023/04/24 00:11:11;;;;;;;7.13;2.60;;;;;;;18.75;53.65;95999.13;5033344;28;20362;-32
2023/04/24 00:13:37;;;;;;;9.88;2.55;;;;;;;18.78;53.96;95998.16;5033507;28;20187;-30
2023/04/24 00:16:03;;;;;;;7.07;2.55;;;;;;;18.57;54.89;95980.25;5039580;28;20021;-30
2023/04/24 00:18:28;;;;;;;7.38;2.92;;;;;;;18.84;54.36;95976.19;5035590;28;20025;-30
2023/04/24 00:20:53;;;;;;;6.18;2.45;;;;;;;18.89;53.76;95980.97;5039461;28;20401;-31
2023/04/24 00:23:19;;;;;;;5.70;2.65;;;;;;;18.78;54.37;95978.94;5032890;28;20024;-29
2023/04/24 00:25:44;;;;;;;7.85;3.13;;;;;;;18.64;54.65;95975.09;5033800;28;20041;-29
2023/04/24 00:28:10;;;;;;;9.18;2.75;;;;;;;18.84;54.32;95981.69;5040484;28;20103;-31
2023/04/24 00:30:36;;;;;;;8.93;2.58;;;;;;;18.72;54.44;95983.63;5040156;28;20017;-30
2023/04/24 00:33:01;;;;;;;13.73;3.10;;;;;;;18.83;54.38;95980.94;5042148;28;20017;-31
2023/04/24 00:35:26;;;;;;;6.93;3.00;;;;;;;18.88;54.09;95971.97;5036952;28;20045;-30
2023/04/24 00:37:52;;;;;;;5.20;2.72;;;;;;;18.82;54.42;95971.19;5036088;28;20041;-30
2023/04/24 00:40:17;;;;;;;8.75;2.83;;;;;;;18.90;54.09;95974.25;5036880;28;20053;-30
2023/04/24 00:42:44;;;;;;;6.57;3.10;;;;;;;18.84;54.19;95968.69;5044107;28;20021;-31
2023/04/24 00:45:09;;;;;;;6.60;2.75;;;;;;;18.86;54.52;95973.72;5032495;28;20103;-32
2023/04/24 00:47:36;;;;;;;5.53;2.78;;;;;;;18.60;54.97;95974.56;5041216;28;20176;-30
2023/04/24 00:50:06;;;;;;;7.55;3.28;;;;;;;18.69;54.85;95979.09;5037798;28;20517;-30
2023/04/24 00:52:32;;;;;;;5.75;2.95;;;;;;;18.74;54.92;95970.16;5042221;28;20064;-31
2023/04/24 00:54:58;;;;;;;6.40;2.53;;;;;;;18.66;55.04;95966.38;5036805;28;20030;-30
2023/04/24 00:57:24;;;;;;;5.65;3.10;;;;;;;18.69;55.06;95968.13;5036822;28;20030;-30
2023/04/24 00:59:50;;;;;;;12.00;2.75;;;;;;;18.63;55.08;95959.84;5043677;28;20025;-30
2023/04/24 01:02:15;;;;;;;9.18;2.70;;;;;;;18.69;54.87;95959.88;5036890;28;20044;-30
2023/04/24 01:04:41;;;;;;;8.90;3.65;;;;;;;18.52;55.59;95945.28;5036415;28;20489;-30
2023/04/24 01:07:10;;;;;;;11.05;3.10;;;;;;;18.66;54.95;95944.41;5036520;28;20021;-30
2023/04/24 01:09:40;;;;;;;8.70;3.10;;;;;;;18.61;55.29;95942.38;5036925;28;20384;-32
2023/04/24 01:12:06;;;;;;;8.77;2.90;;;;;;;18.73;54.92;95940.44;5037486;28;20083;-30
2023/04/24 01:14:31;;;;;;;4.95;2.92;;;;;;;18.65;55.12;95951.88;5045760;28;20024;-30
2023/04/24 01:16:57;;;;;;;8.38;3.60;;;;;;;18.68;55.35;95933.66;5041279;28;20026;-31
2023/04/24 01:19:23;;;;;;;7.40;3.72;;;;;;;18.54;55.90;95934.56;5036602;28;20092;-30
2023/04/24 01:21:52;;;;;;;9.57;3.10;;;;;;;18.55;55.94;95928.56;5036128;28;20022;-30
2023/04/24 01:24:19;;;;;;;12.13;3.95;;;;;;;18.64;55.95;95922.16;5036213;28;20017;-30
2023/04/24 01:26:45;;;;;;;7.05;3.20;;;;;;;18.63;55.96;95924.16;5038792;28;20100;-30
2023/04/24 01:29:10;;;;;;;8.85;3.40;;;;;;;18.80;55.66;95920.72;5047117;28;20025;-30
2023/04/24 01:31:36;;;;;;;6.88;3.53;;;;;;;18.41;56.63;95917.75;5036028;28;20025;-29
2023/04/24 01:34:03;;;;;;;9.23;3.28;;;;;;;18.53;56.43;95914.59;5031842;28;20032;-28
2023/04/24 01:36:29;;;;;;;7.55;2.80;;;;;;;18.79;55.91;95908.97;5035780;28;20029;-29
2023/04/24 01:38:55;;;;;;;9.60;3.53;;;;;;;18.45;56.54;95894.31;5036049;28;20029;-29
2023/04/24 01:41:21;;;;;;;8.80;3.58;;;;;;;18.68;56.10;95897.94;5040819;28;20024;-29
2023/04/24 01:43:48;;;;;;;8.77;4.15;;;;;;;18.73;55.73;95889.00;5037552;28;20032;-29
2023/04/24 01:46:13;;;;;;;10.23;2.80;;;;;;;18.66;55.71;95875.75;5042519;28;20385;-28
2023/04/24 01:48:40;;;;;;;6.43;2.83;;;;;;;18.75;55.41;95881.00;5035778;28;20075;-29
2023/04/24 01:51:05;;;;;;;8.52;2.70;;;;;;;18.83;55.17;95881.28;5042812;28;20496;-30
2023/04/24 01:53:30;;;;;;;9.20;2.72;;;;;;;18.79;55.27;95870.53;5035515;28;20068;-30
2023/04/24 01:55:57;;;;;;;9.10;3.13;;;;;;;18.71;55.65;95864.00;5035708;28;20371;-29
2023/04/24 01:58:22;;;;;;;8.30;2.65;;;;;;;18.72;55.42;95868.25;5035438;28;20063;-29
2023/04/24 02:00:48;;;;;;;10.00;3.03;;;;;;;18.70;55.34;95870.75;5035422;28;20108;-29
2023/04/24 02:03:13;;;;;;;9.55;2.97;;;;;;;18.74;55.22;95873.25;5035721;28;20461;-29
2023/04/24 02:05:38;;;;;;;9.60;3.13;;;;;;;18.75;55.07;95883.00;5035556;28;20042;-28
2023/04/24 02:08:04;;;;;;;12.45;3.33;;;;;;;18.58;55.46;95885.66;5035227;28;20029;-31
2023/04/24 02:10:29;;;;;;;6.03;2.58;;;;;;;18.56;55.56;95899.09;5045399;28;20029;-29
2023/04/24 02:12:55;;;;;;;8.10;3.45;;;;;;;18.67;54.99;95892.97;5040305;28;20021;-28
2023/04/24 02:15:21;;;;;;;8.88;3.05;;;;;;;18.64;55.27;95887.22;5042165;28;20024;-30
2023/04/24 02:17:46;;;;;;;7.18;2.83;;;;;;;18.67;54.89;95888.19;5035081;28;20022;-31
2023/04/24 02:20:12;;;;;;;10.32;3.40;;;;;;;18.65;55.22;95898.94;5035253;28;20025;-28
2023/04/24 02:22:37;;;;;;;8.40;3.30;;;;;;;18.64;54.99;95892.69;5034982;28;20465;-30
2023/04/24 02:25:03;;;;;;;8.35;2.90;;;;;;;18.67;55.00;95894.44;5042215;28;20048;-29
2023/04/24 02:27:28;;;;;;;7.75;3.30;;;;;;;18.61;54.95;95884.69;5033644;28;20029;-29
2023/04/24 02:29:55;;;;;;;9.38;2.72;;;;;;;18.83;54.61;95884.78;5034859;28;20080;-29
2023/04/24 02:32:20;;;;;;;7.40;3.00;;;;;;;18.83;54.47;95884.78;5041096;28;20028;-29
2023/04/24 02:34:45;;;;;;;13.10;3.13;;;;;;;18.69;54.67;95888.47;5035741;28;20030;-28
2023/04/24 02:37:11;;;;;;;6.55;2.72;;;;;;;18.72;54.75;95881.25;5039010;28;20021;-29
2023/04/24 02:39:36;;;;;;;8.00;3.28;;;;;;;18.67;54.89;95873.75;5036104;28;20041;-29
2023/04/24 02:42:02;;;;;;;6.85;3.08;;;;;;;18.76;54.69;95874.28;5041981;28;20019;-29
2023/04/24 02:44:28;;;;;;;7.38;3.05;;;;;;;18.69;54.79;95855.50;5034900;28;20487;-29
2023/04/24 02:46:53;;;;;;;8.55;3.25;;;;;;;18.67;54.99;95852.50;5034799;28;20028;-28
2023/04/24 02:49:19;;;;;;;8.30;3.65;;;;;;;18.67;55.06;95852.50;5034780;28;20029;-29
2023/04/24 02:51:44;;;;;;;9.18;3.17;;;;;;;18.47;55.59;95845.16;5041032;28;20025;-28
2023/04/24 02:54:10;;;;;;;8.73;3.15;;;;;;;18.49;55.52;95842.66;5042169;28;20029;-29
2023/04/24 02:56:35;;;;;;;9.90;3.00;;;;;;;18.63;55.41;95846.50;5033788;28;20018;-28
2023/04/24 02:59:01;;;;;;;10.60;3.17;;;;;;;18.56;55.34;95847.69;5034769;28;20439;-29
2023/04/24 03:01:26;;;;;;;9.95;3.30;;;;;;;18.46;55.73;95838.16;5034372;28;20035;-29
2023/04/24 03:03:51;;;;;;;6.97;2.67;;;;;;;18.61;55.24;95838.00;5034174;28;20021;-29
2023/04/24 03:06:17;;;;;;;9.40;2.92;;;;;;;18.55;55.59;95845.44;5035630;28;20108;-29
2023/04/24 03:08:42;;;;;;;11.38;3.72;;;;;;;18.62;55.20;95845.75;5043387;28;20029;-29
2023/04/24 03:11:08;;;;;;;8.07;3.17;;;;;;;18.71;55.04;95847.53;5043665;28;20385;-29
2023/04/24 03:13:33;;;;;;;8.07;2.90;;;;;;;18.61;55.41;95849.75;5034503;28;20036;-29
2023/04/24 03:15:59;;;;;;;9.73;2.83;;;;;;;18.60;55.44;95842.00;5033874;28;20025;-29
2023/04/24 03:18:25;;;;;;;8.00;2.90;;;;;;;18.59;55.40;95845.97;5034296;28;20576;-29
2023/04/24 03:20:50;;;;;;;7.88;3.38;;;;;;;18.58;55.43;95836.22;5033995;28;20469;-31
2023/04/24 03:23:16;;;;;;;8.48;3.40;;;;;;;18.71;55.28;95830.28;5040928;28;20108;-28
2023/04/24 03:25:42;;;;;;;6.72;2.78;;;;;;;18.67;55.38;95833.28;5034691;28;20067;-29
2023/04/24 03:28:08;;;;;;;9.60;3.13;;;;;;;18.55;55.71;95834.44;5041205;28;20025;-30
2023/04/24 03:30:33;;;;;;;11.38;3.47;;;;;;;18.71;55.46;95822.81;5034163;28;20029;-29
2023/04/24 03:32:59;;;;;;;7.50;3.15;;;;;;;18.59;55.88;95824.00;5040824;28;20059;-29
2023/04/24 03:35:24;;;;;;;7.28;3.13;;;;;;;18.60;55.72;95833.75;5033718;28;20032;-30
2023/04/24 03:37:50;;;;;;;8.57;3.40;;;;;;;18.80;55.22;95839.06;5041112;28;20029;-28
2023/04/24 03:40:15;;;;;;;6.90;3.25;;;;;;;18.62;55.92;95843.00;5030252;28;20028;-29
2023/04/24 03:42:41;;;;;;;13.45;3.72;;;;;;;18.62;55.83;95843.00;5033719;28;20033;-29
2023/04/24 03:45:07;;;;;;;8.75;3.20;;;;;;;18.76;55.52;95849.56;5032804;28;20546;-29
2023/04/24 03:47:32;;;;;;;9.30;4.03;;;;;;;18.66;55.85;95845.53;5033692;28;20466;-31
2023/04/24 03:49:58;;;;;;;8.00;3.17;;;;;;;18.71;55.68;95853.03;5041464;28;20040;-29
2023/04/24 03:52:23;;;;;;;5.90;2.75;;;;;;;18.84;55.44;95849.81;5043848;28;20472;-29
2023/04/24 03:54:49;;;;;;;13.40;3.50;;;;;;;18.90;55.41;95856.09;5036809;28;20025;-29
2023/04/24 03:57:14;;;;;;;8.68;3.28;;;;;;;18.86;55.30;95855.56;5033644;28;20024;-30
2023/04/24 03:59:40;;;;;;;11.13;3.40;;;;;;;18.65;55.97;95844.03;5033848;28;20028;-29
2023/04/24 04:02:05;;;;;;;9.60;3.15;;;;;;;18.64;55.64;95850.75;5033863;28;20166;-29
2023/04/24 04:04:30;;;;;;;7.05;3.13;;;;;;;18.67;56.20;95853.25;5040360;28;20078;-30
2023/04/24 04:06:56;;;;;;;9.27;3.50;;;;;;;18.70;56.21;95848.75;5042266;28;20017;-29
2023/04/24 04:09:21;;;;;;;7.22;3.40;;;;;;;18.74;56.31;95832.81;5045130;28;20083;-32
2023/04/24 04:11:47;;;;;;;8.35;3.05;;;;;;;18.59;57.24;95843.97;5037694;28;20108;-29
2023/04/24 04:14:12;;;;;;;12.32;3.55;;;;;;;18.49;57.63;95841.91;5037335;28;20445;-29
2023/04/24 04:16:38;;;;;;;9.93;3.90;;;;;;;18.51;57.89;95850.41;5044667;28;20024;-28
2023/04/24 04:19:04;;;;;;;11.00;3.60;;;;;;;18.61;57.55;95849.00;5043578;28;20020;-29
2023/04/24 04:21:31;;;;;;;7.95;3.13;;;;;;;18.77;57.68;95856.56;5038805;28;20465;-28
2023/04/24 04:23:56;;;;;;;9.80;3.58;;;;;;;18.78;57.80;95849.81;5037456;28;20053;-30
2023/04/24 04:26:25;;;;;;;7.38;3.00;;;;;;;18.72;57.64;95851.78;5036963;28;20386;-29
2023/04/24 04:28:53;;;;;;;7.10;3.03;;;;;;;18.79;57.65;95850.56;5032084;28;20033;-30
2023/04/24 04:31:23;;;;;;;10.65;3.70;;;;;;;18.72;58.49;95849.03;5039409;28;20473;-28
2023/04/24 04:33:48;;;;;;;7.30;3.08;;;;;;;18.77;58.04;95848.31;5037717;28;21210;-29
2023/04/24 04:36:14;;;;;;;7.10;3.75;;;;;;;18.64;58.33;95839.78;5037192;28;20018;-29
2023/04/24 04:38:40;;;;;;;6.10;2.85;;;;;;;18.64;58.36;95839.78;5036067;28;20469;-30
2023/04/24 04:41:06;;;;;;;6.30;2.63;;;;;;;18.75;58.20;95839.81;5029753;28;20022;-29
2023/04/24 04:43:33;;;;;;;6.35;3.08;;;;;;;18.69;58.92;95830.78;5035867;28;20021;-28
2023/04/24 04:46:00;;;;;;;7.68;3.65;;;;;;;18.70;58.70;95835.03;5043996;28;20021;-31
2023/04/24 04:48:27;;;;;;;6.78;3.53;;;;;;;18.53;59.25;95837.69;5041724;28;20537;-29
2023/04/24 04:50:52;;;;;;;10.05;3.88;;;;;;;18.67;59.46;95828.53;5046440;28;20029;-29
2023/04/24 04:53:17;;;;;;;10.95;4.47;;;;;;;18.74;58.67;95834.81;5036894;28;20025;-29
2023/04/24 04:55:43;;;;;;;9.63;3.55;;;;;;;18.68;59.11;95837.53;5036566;28;20473;-30
2023/04/24 04:58:09;;;;;;;9.20;3.72;;;;;;;18.75;59.08;95831.56;5037965;28;20037;-30
2023/04/24 05:00:37;;;;;;;12.43;4.80;;;;;;;18.59;59.84;95835.00;5042885;28;20430;-29
2023/04/24 05:03:03;;;;;;;10.93;3.40;;;;;;;18.43;60.23;95833.66;5043640;28;20444;-29
2023/04/24 05:05:29;;;;;;;8.98;3.35;;;;;;;18.65;59.55;95842.03;5036292;28;20124;-28
2023/04/24 05:07:54;;;;;;;9.25;3.53;;;;;;;18.62;59.41;95845.00;5036574;28;20028;-28
2023/04/24 05:10:19;;;;;;;8.98;2.97;;;;;;;18.71;58.82;95842.03;5036706;28;20032;-29
2023/04/24 05:12:45;;;;;;;10.90;3.33;;;;;;;18.72;58.98;95843.53;5036650;28;20089;-29
2023/04/24 05:15:11;;;;;;;12.05;3.90;;;;;;;18.75;59.00;95842.56;5043223;28;20535;-29
2023/04/24 05:17:36;;;;;;;6.00;3.58;;;;;;;18.57;59.67;95848.44;5036520;28;20020;-29
2023/04/24 05:20:05;;;;;;;10.93;3.45;;;;;;;18.62;59.50;95845.00;5035569;28;20048;-29
2023/04/24 05:22:31;;;;;;;10.90;3.40;;;;;;;18.55;59.88;95842.69;5036481;28;20075;-29
2023/04/24 05:24:57;;;;;;;9.13;3.50;;;;;;;18.67;59.43;95832.53;5036078;28;20021;-29
2023/04/24 05:27:22;;;;;;;10.38;3.30;;;;;;;18.58;59.70;95828.75;5043132;28;20028;-30
2023/04/24 05:29:47;;;;;;;8.68;3.10;;;;;;;18.55;59.86;95832.44;5036248;28;20099;-29
2023/04/24 05:32:13;;;;;;;9.18;3.65;;;;;;;18.53;59.53;95823.22;5040864;28;20461;-29
2023/04/24 05:34:38;;;;;;;9.63;3.47;;;;;;;18.54;59.51;95813.75;5037976;28;20080;-29
2023/04/24 05:37:07;;;;;;;11.25;3.35;;;;;;;18.54;59.59;95805.50;5035971;28;20028;-29
2023/04/24 05:39:33;;;;;;;9.23;3.63;;;;;;;18.58;59.63;95806.78;5035732;28;20063;-29
2023/04/24 05:41:59;;;;;;;11.30;3.67;;;;;;;18.46;59.94;95826.41;5050082;28;20048;-29
2023/04/24 05:44:25;;;;;;;11.13;4.15;;;;;;;18.60;59.51;95820.78;5040817;28;20036;-29
2023/04/24 05:46:50;;;;;;;11.90;4.03;;;;;;;18.62;59.68;95779.84;5030331;28;20428;-29
2023/04/24 05:49:16;;;;;;;7.68;3.40;;;;;;;18.59;59.70;95760.84;5035451;28;20018;-29
2023/04/24 05:51:41;;;;;;;11.88;3.95;;;;;;;18.41;60.37;95740.06;5035728;28;20055;-28
2023/04/24 05:54:07;;;;;;;8.35;3.67;;;;;;;18.45;60.76;95750.78;5036896;28;20034;-29
2023/04/24 05:56:32;;;;;;;9.45;3.67;;;;;;;18.42;60.41;95760.75;5041143;28;20378;-30
2023/04/24 05:58:58;;;;;;;6.65;3.25;;;;;;;18.58;59.87;95762.09;5042884;28;20473;-29
2023/04/24 06:01:24;;;;;;;7.95;3.28;;;;;;;18.58;59.67;95756.59;5035713;28;20013;-29
2023/04/24 06:03:50;;;;;;;9.43;3.95;;;;;;;18.49;60.34;95776.78;5035442;28;20021;-29
2023/04/24 06:06:15;;;;;;;12.00;4.07;;;;;;;18.52;60.06;95797.75;5035370;28;20124;-29
2023/04/24 06:08:42;;;;;;;8.02;3.05;;;;;;;18.39;60.55;95802.19;5041041;28;20022;-30
2023/04/24 06:11:07;;;;;;;7.63;3.28;;;;;;;18.58;60.01;95808.78;5042200;28;20394;-29
2023/04/24 06:13:33;;;;;;;8.10;3.10;;;;;;;18.64;59.70;95817.78;5035810;28;20017;-30
2023/04/24 06:15:58;;;;;;;5.93;2.90;;;;;;;18.55;60.25;95818.72;5034055;28;20022;-29
2023/04/24 06:18:24;;;;;;;6.82;2.72;;;;;;;18.44;60.30;95817.91;5035448;28;20079;-29
2023/04/24 06:20:49;;;;;;;8.73;3.58;;;;;;;18.39;60.41;95815.91;5038498;28;20025;-29
2023/04/24 06:23:15;;;;;;;8.38;3.30;;;;;;;18.63;59.65;95816.28;5036991;28;20021;-29
2023/04/24 06:25:46;;;;;;;7.30;3.17;;;;;;;18.60;59.96;95820.03;5042398;28;20108;-29
2023/04/24 06:28:12;;;;;;;8.15;3.00;;;;;;;18.62;59.54;95817.53;5041844;28;20033;-29
2023/04/24 06:30:37;;;;;;;7.80;2.85;;;;;;;18.46;60.46;95823.69;5032686;28;20542;-29
2023/04/24 06:33:03;;;;;;;8.60;3.10;;;;;;;18.77;59.78;95828.31;5041763;28;20021;-29
2023/04/24 06:35:28;;;;;;;11.18;3.70;;;;;;;18.44;60.49;95831.66;5034747;28;20147;-29
2023/04/24 06:37:56;;;;;;;7.13;3.08;;;;;;;18.48;60.52;95826.69;5042549;28;20104;-29
2023/04/24 06:40:21;;;;;;;12.93;4.03;;;;;;;18.62;60.03;95823.78;5034604;28;20021;-29
2023/04/24 06:42:47;;;;;;;10.23;3.30;;;;;;;18.64;60.00;95831.53;5035014;28;20024;-29
2023/04/24 06:45:12;;;;;;;8.38;3.45;;;;;;;18.68;60.24;95821.03;5034786;28;20048;-28
2023/04/24 06:47:38;;;;;;;8.55;3.40;;;;;;;18.78;59.21;95822.34;5034744;28;20017;-29
2023/04/24 06:50:03;;;;;;;7.10;3.67;;;;;;;18.74;59.84;95815.56;5034222;28;20029;-30
2023/04/24 06:52:37;;;;;;;9.02;3.33;;;;;;;18.65;59.77;95824.78;5062830;28;20587;-29
2023/04/24 06:55:03;;;;;;;8.52;3.70;;;;;;;18.57;60.43;95827.22;5058766;28;20037;-31
2023/04/24 06:57:29;;;;;;;12.05;3.88;;;;;;;18.80;59.23;95830.06;5056991;28;20029;-29
2023/04/24 06:59:55;;;;;;;8.35;3.67;;;;;;;18.51;60.58;95822.97;5057832;28;20036;-29
2023/04/24 07:02:20;;;;;;;9.32;4.30;;;;;;;18.66;60.35;95823.56;5060397;28;20024;-30
2023/04/24 07:04:46;;;;;;;12.90;3.60;;;;;;;18.58;60.07;95815.03;5061606;28;20096;-28
2023/04/24 07:07:14;;;;;;;12.13;4.68;;;;;;;18.62;60.06;95823.03;5059589;28;20493;-29
2023/04/24 07:09:42;;;;;;;8.90;4.55;;;;;;;18.68;59.89;95832.03;5060730;28;20052;-29
2023/04/24 07:12:08;;;;;;;12.35;4.03;;;;;;;18.54;60.46;95828.22;5060162;28;20021;-29
2023/04/24 07:14:33;;;;;;;10.98;3.53;;;;;;;18.52;60.52;95827.22;5057504;28;20031;-29
2023/04/24 07:16:58;;;;;;;8.93;4.00;;;;;;;18.35;60.84;95823.63;5057827;28;20117;-30
2023/04/24 07:19:24;;;;;;;17.15;4.43;;;;;;;18.54;60.07;95821.97;5057441;28;20029;-29
2023/04/24 07:21:50;;;;;;;12.65;4.03;;;;;;;18.65;60.01;95833.78;5057462;28;20071;-28
2023/04/24 07:24:15;;;;;;;10.95;3.67;;;;;;;18.44;60.86;95826.16;5057353;28;20044;-29
2023/04/24 07:26:41;;;;;;;9.98;3.70;;;;;;;18.63;60.29;95832.78;5055732;28;20488;-30
2023/04/24 07:29:07;;;;;;;11.82;3.75;;;;;;;18.46;61.01;95821.69;5057591;28;20092;-29
2023/04/24 07:31:32;;;;;;;13.50;4.15;;;;;;;18.53;60.58;95826.72;5057871;28;20056;-29
2023/04/24 07:33:58;;;;;;;11.85;4.05;;;;;;;18.49;60.82;95831.69;5053141;28;20048;-29
2023/04/24 07:36:25;;;;;;;18.30;4.40;;;;;;;18.38;61.24;95817.16;5060373;28;20508;-29
2023/04/24 07:38:51;;;;;;;11.60;4.13;;;;;;;18.59;60.41;95813.03;5058536;28;20071;-28
2023/04/24 07:41:16;;;;;;;11.40;4.45;;;;;;;18.55;60.75;95815.97;5060057;28;20016;-29
2023/04/24 07:43:42;;;;;;;13.07;3.92;;;;;;;18.62;60.57;95804.56;5063292;28;20021;-30
2023/04/24 07:46:08;;;;;;;12.48;3.67;;;;;;;18.67;60.38;95813.31;5057193;28;20155;-29
2023/04/24 07:48:34;;;;;;;9.55;3.65;;;;;;;18.65;60.77;95822.81;5056686;28;20021;-28
2023/04/24 07:51:00;;;;;;;13.63;4.13;;;;;;;18.71;60.57;95813.81;5056946;28;20084;-29
2023/04/24 07:53:25;;;;;;;9.15;3.67;;;;;;;18.62;60.84;95810.06;5059770;28;20052;-28
2023/04/24 07:55:51;;;;;;;11.85;3.42;;;;;;;18.56;60.91;95811.22;5052217;28;20028;-28
2023/04/24 07:58:16;;;;;;;13.02;4.72;;;;;;;18.63;61.25;95817.03;5056659;28;20013;-28
2023/04/24 08:00:42;;;;;;;15.07;4.45;;;;;;;18.58;61.52;95812.28;5049767;28;20021;-28
2023/04/24 08:03:07;;;;;;;8.32;3.70;;;;;;;18.73;60.92;95808.56;5048451;28;20029;-28
2023/04/24 08:05:32;;;;;;;11.13;2.83;;;;;;;18.77;60.40;95801.63;5042904;28;20120;-28
2023/04/24 08:07:58;;;;;;;12.88;3.50;;;;;;;18.75;60.43;95809.59;5043047;28;20480;-29
2023/04/24 08:10:25;;;;;;;8.00;3.30;;;;;;;18.61;60.91;95810.53;5035913;28;20040;-29
2023/04/24 08:12:51;;;;;;;13.38;3.80;;;;;;;18.86;60.08;95812.38;5043334;28;20102;-29
2023/04/24 08:15:16;;;;;;;12.82;2.72;;;;;;;18.77;60.83;95811.84;5043187;28;20106;-29
2023/04/24 08:17:42;;;;;;;10.15;3.53;;;;;;;18.93;60.87;95814.63;5043075;28;20021;-28
2023/04/24 08:20:14;;;;;;;10.02;3.30;;;;;;;18.98;61.25;95815.88;5042787;28;20448;-28
2023/04/24 08:22:42;;;;;;;11.17;3.77;;;;;;;18.85;61.88;95810.09;5042820;28;20135;-29
2023/04/24 08:25:09;;;;;;;10.18;3.95;;;;;;;19.05;60.87;95804.41;5042908;28;20025;-28
2023/04/24 08:27:36;;;;;;;16.40;4.90;;;;;;;19.13;61.02;95805.44;5043538;28;20021;-29
2023/04/24 08:30:02;;;;;;;12.55;3.90;;;;;;;19.12;60.68;95803.19;5046975;28;20021;-28
2023/04/24 08:32:28;;;;;;;11.90;3.70;;;;;;;18.98;61.57;95800.16;5038340;28;20030;-28
2023/04/24 08:34:57;;;;;;;9.82;3.92;;;;;;;19.24;60.26;95782.69;5043110;28;20370;-28
2023/04/24 08:37:26;;;;;;;10.27;2.83;;;;;;;19.42;58.77;95786.94;5035475;28;20543;-29
2023/04/24 08:39:52;;;;;;;10.82;3.33;;;;;;;19.04;60.86;95780.19;5044086;28;20022;-29
2023/04/24 08:42:19;;;;;;;9.70;3.00;;;;;;;19.50;58.51;95777.72;5041284;28;20411;-29
2023/04/24 08:44:45;;;;;;;10.65;2.65;;;;;;;19.35;58.59;95791.69;5042034;28;20032;-29
2023/04/24 08:47:11;;;;;;;9.32;2.50;;;;;;;19.46;58.31;95799.19;5042457;28;20562;-29
2023/04/24 08:49:38;;;;;;;14.30;2.72;;;;;;;19.39;58.71;95791.47;5042284;28;20025;-28
2023/04/24 08:52:05;;;;;;;8.20;3.28;;;;;;;19.31;58.48;95787.69;5043390;28;20116;-31
2023/04/24 08:54:31;;;;;;;12.25;3.08;;;;;;;19.47;57.76;95788.94;5045558;28;20119;-30
2023/04/24 08:57:01;;;;;;;8.13;2.80;;;;;;;19.14;58.35;95800.69;5045283;28;20484;-29
2023/04/24 08:59:27;;;;;;;11.32;3.10;;;;;;;19.46;56.80;95792.94;5038910;28;20078;-29
2023/04/24 09:01:55;;;;;;;7.93;2.58;;;;;;;19.45;56.99;95800.44;5045571;28;20024;-28
2023/04/24 09:04:24;;;;;;;8.18;2.30;;;;;;;19.53;56.92;95804.25;5044223;28;20029;-29
2023/04/24 09:06:50;;;;;;;6.75;2.50;;;;;;;19.44;56.99;95806.44;5046764;28;20465;-29
2023/04/24 09:09:17;;;;;;;8.70;2.72;;;;;;;19.53;56.34;95803.50;5042786;28;20052;-28
2023/04/24 09:11:43;;;;;;;9.90;2.55;;;;;;;19.44;56.46;95800.94;5042610;28;20369;-30
2023/04/24 09:14:10;;;;;;;10.63;2.50;;;;;;;19.62;56.05;95801.22;5044040;28;20025;-29
2023/04/24 09:16:35;;;;;;;6.40;2.33;;;;;;;19.45;56.36;95796.94;5049092;28;20439;-29
2023/04/24 09:19:01;;;;;;;8.43;3.08;;;;;;;19.44;56.49;95801.69;5041955;28;20100;-29
2023/04/24 09:21:32;;;;;;;9.40;3.35;;;;;;;19.34;56.80;95803.19;5041981;28;20111;-28
2023/04/24 09:23:59;;;;;;;8.63;2.63;;;;;;;19.29;57.33;95796.44;5041644;28;20021;-29
2023/04/24 09:26:25;;;;;;;9.90;2.53;;;;;;;19.52;57.83;95788.25;5042213;28;20402;-30
2023/04/24 09:28:51;;;;;;;10.73;2.83;;;;;;;19.57;58.11;95796.47;5041684;28;20026;-29
2023/04/24 09:31:21;;;;;;;7.28;2.92;;;;;;;19.69;59.25;95784.22;5041338;28;20366;-29
2023/04/24 09:33:58;;;;;;;8.15;2.65;;;;;;;19.76;57.63;95795.97;5042083;28;20033;-29
2023/04/24 09:36:33;;;;;;;8.73;2.97;;;;;;;19.70;60.34;95787.72;5041295;28;20092;-29
2023/04/24 09:39:01;;;;;;;8.20;3.33;;;;;;;19.57;60.42;95801.97;5044805;28;20406;-29
2023/04/24 09:41:27;;;;;;;8.73;3.00;;;;;;;19.72;59.35;95790.72;5044694;28;20013;-28
2023/04/24 09:43:56;;;;;;;8.05;2.63;;;;;;;19.73;58.31;95801.22;5042956;28;20021;-28
2023/04/24 09:46:30;;;;;;;10.95;2.88;;;;;;;19.52;58.90;95791.00;5044609;28;20457;-29
2023/04/24 09:48:56;;;;;;;9.25;3.15;;;;;;;19.64;58.31;95786.97;5038211;28;20092;-29
2023/04/24 09:51:35;;;;;;;12.55;3.47;;;;;;;19.76;57.85;95793.97;5040660;28;20037;-28
2023/04/24 09:54:00;;;;;;;15.25;2.83;;;;;;;19.78;58.07;95768.72;5041711;28;20075;-29
2023/04/24 09:56:26;;;;;;;11.68;2.88;;;;;;;19.67;58.00;95763.94;5048051;28;20473;-29
2023/04/24 09:58:51;;;;;;;12.00;3.25;;;;;;;19.77;57.65;95767.22;5041171;28;20038;-28
2023/04/24 10:01:30;;;;;;;12.02;2.88;;;;;;;19.85;57.56;95768.94;5034075;28;20111;-29
2023/04/24 10:03:56;;;;;;;13.27;3.40;;;;;;;19.73;57.75;95768.19;5041779;28;20036;-29
2023/04/24 10:06:21;;;;;;;11.15;3.05;;;;;;;19.69;57.22;95773.19;5035707;28;20025;-29
2023/04/24 10:08:48;;;;;;;9.40;2.95;;;;;;;19.78;57.08;95761.19;5039170;28;20021;-28
2023/04/24 10:11:14;;;;;;;7.43;2.33;;;;;;;19.85;56.48;95768.19;5048382;28;20040;-29
2023/04/24 10:13:40;;;;;;;6.22;2.50;;;;;;;19.89;56.44;95752.16;5041552;28;20373;-29
2023/04/24 10:16:07;;;;;;;10.73;2.83;;;;;;;19.82;56.49;95753.44;5033475;28;20025;-29
2023/04/24 10:18:33;;;;;;;14.90;2.97;;;;;;;19.87;55.97;95760.94;5041173;28;20025;-29
2023/04/24 10:21:00;;;;;;;11.60;3.20;;;;;;;19.88;55.71;95751.41;5046236;28;20061;-28
2023/04/24 10:23:26;;;;;;;18.23;3.63;;;;;;;19.95;55.32;95755.66;5042335;28;20033;-29
2023/04/24 10:25:52;;;;;;;8.95;3.08;;;;;;;19.81;55.65;95762.19;5043411;28;20025;-29
2023/04/24 10:28:20;;;;;;;8.05;2.50;;;;;;;19.90;55.90;95759.19;5043818;28;20037;-29
2023/04/24 10:30:47;;;;;;;10.93;3.90;;;;;;;19.97;55.31;95767.66;5041056;28;20025;-30
2023/04/24 10:33:13;;;;;;;7.35;3.00;;;;;;;19.90;55.22;95759.19;5038165;28;20030;-29
2023/04/24 10:35:48;;;;;;;9.30;2.45;;;;;;;19.92;55.46;95757.41;5043151;28;20025;-29
2023/04/24 10:38:18;;;;;;;10.18;2.92;;;;;;;20.07;54.97;95762.63;5038103;28;20033;-29
2023/04/24 10:40:44;;;;;;;10.23;2.50;;;;;;;19.93;55.00;95753.41;5042403;28;20047;-30
2023/04/24 10:43:10;;;;;;;9.93;2.33;;;;;;;20.11;54.17;95751.34;5040532;28;20018;-29
2023/04/24 10:45:37;;;;;;;9.25;2.53;;;;;;;19.91;54.61;95739.38;5039931;28;20021;-29
2023/04/24 10:48:10;;;;;;;6.85;2.45;;;;;;;20.17;54.25;95743.81;5035442;28;20063;-29
2023/04/24 10:50:47;;;;;;;5.20;2.45;;;;;;;20.10;53.72;95764.38;5044093;28;20037;-29
2023/04/24 10:53:17;;;;;;;7.80;2.42;;;;;;;20.11;53.32;95751.34;5034505;28;20021;-29
2023/04/24 10:55:46;;;;;;;9.05;2.75;;;;;;;19.92;53.81;95756.66;5036055;28;20025;-28
2023/04/24 10:58:12;;;;;;;8.25;2.65;;;;;;;20.00;53.78;95768.66;5047152;28;20029;-31
2023/04/24 11:00:39;;;;;;;9.20;2.47;;;;;;;20.02;53.63;95739.38;5040942;28;20029;-29
2023/04/24 11:03:27;;;;;;;10.45;2.78;;;;;;;20.01;53.75;95743.38;5040706;28;20026;-29
2023/04/24 11:05:57;;;;;;;9.45;2.90;;;;;;;19.92;53.84;95753.91;5046615;28;20031;-31
2023/04/24 11:08:40;;;;;;;9.07;2.33;;;;;;;20.01;53.93;95756.41;5032848;28;20052;-29
2023/04/24 11:11:11;;;;;;;9.85;2.28;;;;;;;20.01;54.28;95765.41;5040358;28;20026;-29
2023/04/24 11:13:58;;;;;;;12.43;3.15;;;;;;;19.97;57.35;95759.41;5050412;28;20489;-28
2023/04/24 11:16:32;;;;;;;16.70;4.38;;;;;;;20.05;57.25;95767.88;5041305;28;20028;-28
2023/04/24 11:19:04;;;;;;;13.48;3.17;;;;;;;19.81;61.14;95778.69;5045402;28;20550;-29
2023/04/24 11:21:47;;;;;;;12.40;2.87;;;;;;;20.04;60.10;95780.13;5041069;28;20031;-29
2023/04/24 11:24:25;;;;;;;7.88;3.22;;;;;;;20.08;59.05;95778.63;5040173;28;20024;-30
2023/04/24 11:26:59;;;;;;;14.52;3.70;;;;;;;19.79;60.83;95775.69;5040422;28;20087;-29
2023/04/24 11:29:44;;;;;;;13.73;4.38;;;;;;;19.88;60.08;95764.44;5039334;28;20033;-29